createdAt,value
2018-09-21T00:00:44.151Z,4.13
2018-09-21T00:03:53.322Z,4.30
2018-09-21T00:06:56.689Z,3.83
2018-09-21T00:09:59.945Z,4.47
2018-09-21T00:13:03.081Z,4.50
2018-09-21T00:16:06.339Z,3.83
2018-09-21T00:19:09.616Z,4.50
2018-09-21T00:22:12.850Z,5.03
2018-09-21T00:25:16.102Z,4.07
2018-09-21T00:28:19.366Z,4.33
2018-09-21T00:31:22.584Z,4.63
2018-09-21T00:34:25.775Z,4.53
2018-09-21T00:37:28.955Z,4.00
2018-09-21T00:40:32.167Z,4.43
2018-09-21T00:43:35.369Z,4.57
2018-09-21T00:46:38.533Z,4.40
2018-09-21T00:49:41.845Z,4.73
2018-09-21T00:52:44.986Z,3.87
2018-09-21T00:55:48.248Z,4.10
2018-09-21T00:58:51.463Z,4.40
2018-09-21T01:01:54.724Z,4.10
2018-09-21T01:04:58.021Z,3.93
2018-09-21T01:08:01.198Z,4.40
2018-09-21T01:11:04.467Z,4.27
2018-09-21T01:14:07.700Z,4.13
2018-09-21T01:17:10.888Z,4.23
2018-09-21T01:20:14.125Z,4.90
2018-09-21T01:23:17.475Z,4.93
2018-09-21T01:26:20.871Z,4.70
2018-09-21T01:29:24.083Z,4.73
2018-09-21T01:32:27.302Z,4.67
2018-09-21T01:35:30.535Z,4.80
2018-09-21T01:38:33.773Z,5.30
2018-09-21T01:41:37.130Z,4.40
2018-09-21T01:44:40.441Z,4.70
2018-09-21T01:47:43.677Z,4.43
2018-09-21T01:50:47.114Z,4.40
2018-09-21T01:53:50.397Z,4.30
2018-09-21T01:56:53.672Z,4.63
2018-09-21T01:59:56.915Z,4.23
2018-09-21T02:03:00.363Z,3.97
2018-09-21T02:06:03.725Z,4.40
2018-09-21T02:09:08.667Z,4.77
2018-09-21T02:12:11.956Z,4.37
2018-09-21T02:15:15.278Z,4.57
2018-09-21T02:18:18.464Z,4.07
2018-09-21T02:21:21.824Z,4.37
2018-09-21T02:24:25.094Z,4.40
2018-09-21T02:27:28.449Z,4.27
2018-09-21T02:30:31.711Z,4.43
2018-09-21T02:33:34.994Z,4.17
2018-09-21T02:36:38.343Z,4.43
2018-09-21T02:39:41.602Z,4.50
2018-09-21T02:42:44.754Z,4.57
2018-09-21T02:45:47.990Z,4.43
2018-09-21T02:48:51.275Z,4.97
2018-09-21T02:51:54.583Z,4.57
2018-09-21T02:54:57.769Z,4.30
2018-09-21T02:58:01.019Z,4.60
2018-09-21T03:01:04.413Z,4.80
2018-09-21T03:04:07.669Z,3.87
2018-09-21T03:07:10.922Z,4.90
2018-09-21T03:10:14.443Z,4.73
2018-09-21T03:13:17.787Z,4.63
2018-09-21T03:16:20.964Z,4.30
2018-09-21T03:19:24.123Z,4.80
2018-09-21T03:22:27.264Z,4.57
2018-09-21T03:25:30.952Z,3.90
2018-09-21T03:28:34.942Z,4.30
2018-09-21T03:31:38.300Z,4.00
2018-09-21T03:34:41.786Z,4.50
2018-09-21T03:37:44.994Z,4.27
2018-09-21T03:40:48.302Z,4.13
2018-09-21T03:43:51.606Z,4.23
2018-09-21T03:46:54.927Z,3.93
2018-09-21T03:49:58.177Z,4.20
2018-09-21T03:53:01.399Z,3.90
2018-09-21T03:56:05.154Z,4.67
2018-09-21T03:59:08.547Z,4.13
2018-09-21T04:02:12.146Z,4.23
2018-09-21T04:05:15.501Z,4.30
2018-09-21T04:08:18.786Z,4.67
2018-09-21T04:11:22.052Z,4.40
2018-09-21T04:14:25.165Z,4.77
2018-09-21T04:17:30.101Z,4.10
2018-09-21T04:20:33.309Z,3.87
2018-09-21T04:23:36.593Z,4.13
2018-09-21T04:26:39.984Z,4.13
2018-09-21T04:29:58.174Z,4.20
2018-09-21T04:33:01.377Z,4.63
2018-09-21T04:36:04.510Z,4.30
2018-09-21T04:39:09.993Z,4.10
2018-09-21T04:42:13.229Z,4.20
2018-09-21T04:45:16.387Z,4.40
2018-09-21T04:48:19.693Z,4.23
2018-09-21T04:51:22.801Z,4.33
2018-09-21T04:54:25.992Z,4.20
2018-09-21T04:57:29.204Z,4.57
2018-09-21T05:00:32.375Z,4.00
2018-09-21T05:03:35.569Z,4.00
2018-09-21T05:06:38.678Z,3.83
2018-09-21T05:09:41.930Z,4.33
2018-09-21T05:12:45.139Z,4.40
2018-09-21T05:15:48.666Z,4.10
2018-09-21T05:18:52.266Z,3.80
2018-09-21T05:21:55.482Z,4.37
2018-09-21T05:24:58.793Z,4.80
2018-09-21T05:28:02.029Z,4.57
2018-09-21T05:31:05.224Z,4.30
2018-09-21T05:34:08.528Z,4.27
2018-09-21T05:37:11.782Z,4.37
2018-09-21T05:40:15.046Z,4.33
2018-09-21T05:43:18.367Z,4.37
2018-09-21T05:46:21.554Z,4.40
2018-09-21T05:49:24.832Z,4.53
2018-09-21T05:52:28.118Z,4.63
2018-09-21T05:55:31.319Z,4.77
2018-09-21T05:58:34.669Z,4.27
2018-09-21T06:01:37.933Z,4.63
2018-09-21T06:04:41.200Z,4.87
2018-09-21T06:07:44.400Z,4.40
2018-09-21T06:10:47.583Z,4.37
2018-09-21T06:13:51.049Z,4.10
2018-09-21T06:16:54.270Z,4.87
2018-09-21T06:19:57.531Z,4.80
2018-09-21T06:23:00.807Z,4.77
2018-09-21T06:26:04.122Z,4.90
2018-09-21T06:29:07.462Z,4.70
2018-09-21T06:32:10.820Z,4.13
2018-09-21T06:35:14.134Z,4.37
2018-09-21T06:38:17.370Z,4.87
2018-09-21T06:41:20.602Z,5.10
2018-09-21T06:44:24.157Z,3.90
2018-09-21T06:47:27.394Z,4.33
2018-09-21T06:50:30.575Z,4.50
2018-09-21T06:53:33.762Z,4.90
2018-09-21T06:56:37.062Z,4.63
2018-09-21T06:59:40.570Z,4.20
2018-09-21T07:02:44.003Z,4.40
2018-09-21T07:05:48.317Z,4.50
2018-09-21T07:08:51.547Z,4.10
2018-09-21T07:11:54.733Z,4.37
2018-09-21T07:14:57.972Z,4.60
2018-09-21T07:18:01.266Z,4.23
2018-09-21T07:21:04.521Z,4.60
2018-09-21T07:24:07.763Z,4.70
2018-09-21T07:27:11.077Z,4.17
2018-09-21T07:30:14.418Z,3.90
2018-09-21T07:33:18.192Z,3.87
2018-09-21T07:36:21.449Z,4.40
2018-09-21T07:39:24.518Z,4.60
2018-09-21T07:42:27.663Z,4.93
2018-09-21T07:45:30.873Z,4.13
2018-09-21T07:48:34.045Z,3.93
2018-09-21T07:51:37.260Z,4.33
2018-09-21T07:54:40.434Z,4.40
2018-09-21T07:57:43.680Z,4.17
2018-09-21T08:00:46.858Z,4.00
2018-09-21T08:03:50.056Z,4.60
2018-09-21T08:06:53.314Z,4.00
2018-09-21T08:09:56.489Z,4.00
2018-09-21T08:13:00.278Z,4.23
2018-09-21T08:16:03.478Z,3.70
2018-09-21T08:19:06.797Z,4.43
2018-09-21T08:22:10.035Z,5.00
2018-09-21T08:25:13.312Z,4.13
2018-09-21T08:28:16.522Z,4.10
2018-09-21T08:31:19.753Z,4.33
2018-09-21T08:34:22.957Z,4.63
2018-09-21T08:37:26.113Z,4.40
2018-09-21T08:40:29.216Z,3.90
2018-09-21T08:43:32.364Z,3.97
2018-09-21T08:46:35.507Z,3.90
2018-09-21T08:49:38.721Z,4.83
2018-09-21T08:52:41.914Z,4.70
2018-09-21T08:55:45.066Z,4.37
2018-09-21T08:58:48.365Z,3.97
2018-09-21T09:01:51.651Z,3.93
2018-09-21T09:04:55.357Z,3.70
2018-09-21T09:07:58.557Z,3.73
2018-09-21T09:11:01.727Z,4.27
2018-09-21T09:14:05.165Z,4.17
2018-09-21T09:17:08.540Z,4.17
2018-09-21T09:20:11.646Z,4.40
2018-09-21T09:23:14.958Z,3.70
2018-09-21T09:26:18.057Z,3.83
2018-09-21T09:29:21.298Z,3.73
2018-09-21T09:32:24.542Z,3.70
2018-09-21T09:35:27.971Z,3.33
2018-09-21T09:38:31.630Z,3.43
2018-09-21T09:41:35.024Z,3.10
2018-09-21T09:44:38.180Z,3.20
2018-09-21T09:47:41.574Z,3.10
2018-09-21T09:50:44.833Z,2.93
2018-09-21T09:53:48.301Z,2.90
2018-09-21T09:56:51.624Z,2.30
2018-09-21T09:59:54.997Z,2.00
2018-09-21T10:02:58.524Z,1.90
2018-09-21T10:06:01.803Z,2.03
2018-09-21T10:09:08.333Z,2.27
2018-09-21T10:12:11.586Z,2.00
2018-09-21T10:15:14.790Z,1.17
2018-09-21T10:18:18.038Z,1.70
2018-09-21T10:21:21.240Z,1.40
2018-09-21T10:24:24.585Z,1.90
2018-09-21T10:27:28.058Z,1.63
2018-09-21T10:30:31.391Z,1.40
2018-09-21T10:33:34.869Z,1.50
2018-09-21T10:36:38.105Z,1.47
2018-09-21T10:39:41.488Z,1.77
2018-09-21T10:42:44.924Z,3.17
2018-09-21T10:45:48.054Z,3.03
2018-09-21T10:48:51.463Z,1.07
2018-09-21T10:51:54.818Z,0.80
2018-09-21T10:54:58.409Z,1.10
2018-09-21T10:58:01.670Z,0.93
2018-09-21T11:01:04.927Z,0.80
2018-09-21T11:04:08.181Z,0.90
2018-09-21T11:07:11.424Z,0.90
2018-09-21T11:10:14.644Z,0.63
2018-09-21T11:13:18.003Z,0.70
2018-09-21T11:16:21.146Z,0.70
2018-09-21T11:19:24.594Z,1.93
2018-09-21T11:22:27.964Z,0.63
2018-09-21T11:25:31.240Z,0.50
2018-09-21T11:28:34.534Z,0.63
2018-09-21T11:31:37.730Z,0.93
2018-09-21T11:34:40.981Z,0.60
2018-09-21T11:37:44.233Z,0.80
2018-09-21T11:40:47.586Z,0.80
2018-09-21T11:43:50.945Z,0.57
2018-09-21T11:46:54.181Z,0.40
2018-09-21T11:49:57.645Z,0.50
2018-09-21T11:53:00.782Z,0.30
2018-09-21T11:56:04.059Z,0.60
2018-09-21T11:59:07.404Z,0.33
2018-09-21T12:02:10.783Z,0.80
2018-09-21T12:05:14.141Z,0.70
2018-09-21T12:08:17.520Z,0.47
2018-09-21T12:11:20.875Z,0.40
2018-09-21T12:14:24.814Z,0.43
2018-09-21T12:18:31.637Z,0.50
2018-09-21T12:21:35.149Z,0.40
2018-09-21T12:24:38.483Z,0.60
2018-09-21T12:27:41.772Z,0.90
2018-09-21T12:30:45.158Z,0.30
2018-09-21T12:33:48.503Z,0.43
2018-09-21T12:36:51.882Z,0.50
2018-09-21T12:39:55.371Z,0.40
2018-09-21T12:42:58.752Z,0.50
2018-09-21T12:46:05.282Z,0.40
2018-09-21T12:49:08.704Z,0.50
2018-09-21T12:52:12.182Z,0.70
2018-09-21T12:55:15.475Z,0.40
2018-09-21T12:58:18.934Z,0.40
2018-09-21T13:01:22.197Z,0.40
2018-09-21T13:04:25.663Z,0.73
2018-09-21T13:07:29.278Z,0.40
2018-09-21T13:10:32.693Z,0.50
2018-09-21T13:13:37.262Z,0.57
2018-09-21T13:16:40.789Z,0.50
2018-09-21T13:19:44.055Z,0.60
2018-09-21T13:22:48.540Z,0.60
2018-09-21T13:25:51.862Z,0.87
2018-09-21T13:28:55.123Z,0.40
2018-09-21T13:31:58.557Z,0.50
2018-09-21T13:35:01.804Z,0.50
2018-09-21T13:38:04.999Z,0.50
2018-09-21T13:41:08.303Z,0.60
2018-09-21T13:44:13.918Z,0.70
2018-09-21T13:47:17.253Z,0.70
2018-09-21T13:50:21.976Z,0.47
2018-09-21T13:53:25.234Z,0.50
2018-09-21T13:56:28.541Z,0.80
2018-09-21T13:59:31.750Z,0.60
2018-09-21T14:02:35.096Z,0.70
2018-09-21T14:05:38.447Z,0.50
2018-09-21T14:08:41.620Z,0.70
2018-09-21T14:11:44.753Z,0.90
2018-09-21T14:14:48.014Z,0.60
2018-09-21T14:17:51.250Z,0.77
2018-09-21T14:20:54.911Z,0.70
2018-09-21T14:23:58.222Z,0.67
2018-09-21T14:27:01.391Z,0.73
2018-09-21T14:30:05.077Z,0.90
2018-09-21T14:33:08.372Z,1.07
2018-09-21T14:40:18.490Z,0.50
2018-09-21T14:43:21.707Z,1.00
2018-09-21T14:46:25.110Z,1.00
2018-09-21T14:49:28.465Z,1.03
2018-09-21T14:52:31.699Z,0.50
2018-09-21T14:55:34.990Z,0.60
2018-09-21T14:58:38.328Z,0.67
2018-09-21T15:01:41.847Z,0.70
2018-09-21T15:04:45.070Z,0.70
2018-09-21T15:07:48.633Z,0.83
2018-09-21T15:10:51.862Z,1.30
2018-09-21T15:13:55.114Z,1.27
2018-09-21T15:16:58.442Z,1.17
2018-09-21T15:20:01.651Z,1.40
2018-09-21T15:23:04.847Z,0.70
2018-09-21T15:26:08.123Z,0.67
2018-09-21T15:29:11.367Z,0.80
2018-09-21T15:32:14.786Z,0.90
2018-09-21T15:35:18.044Z,1.00
2018-09-21T15:38:21.251Z,0.70
2018-09-21T15:41:24.536Z,0.80
2018-09-21T15:44:27.699Z,0.70
2018-09-21T15:47:31.047Z,0.93
2018-09-21T15:50:34.270Z,0.70
2018-09-21T15:53:37.668Z,0.80
2018-09-21T15:56:40.978Z,0.70
2018-09-21T15:59:44.321Z,0.70
2018-09-21T16:02:47.591Z,1.00
2018-09-21T16:05:50.923Z,0.60
2018-09-21T16:08:54.171Z,0.50
2018-09-21T16:11:57.580Z,0.50
2018-09-21T16:15:00.711Z,0.33
2018-09-21T16:18:04.986Z,0.60
2018-09-21T16:21:08.144Z,0.30
2018-09-21T16:24:11.465Z,0.33
2018-09-21T16:27:14.641Z,0.40
2018-09-21T16:30:17.843Z,0.57
2018-09-21T16:33:21.090Z,0.43
2018-09-21T16:36:24.298Z,0.50
2018-09-21T16:39:27.553Z,0.50
2018-09-21T16:42:31.583Z,0.30
2018-09-21T16:45:36.100Z,0.37
2018-09-21T16:48:39.389Z,0.20
2018-09-21T16:51:42.698Z,0.20
2018-09-21T16:54:45.873Z,0.40
2018-09-21T16:57:49.326Z,0.30
2018-09-21T17:00:52.632Z,0.20
2018-09-21T17:03:55.930Z,0.23
2018-09-21T17:06:59.194Z,0.30
2018-09-21T17:10:02.551Z,0.50
2018-09-21T17:13:05.911Z,0.40
2018-09-21T17:16:09.232Z,0.20
2018-09-21T17:19:12.514Z,0.30
2018-09-21T17:22:15.746Z,0.20
2018-09-21T17:25:18.951Z,0.17
2018-09-21T17:28:22.144Z,0.30
2018-09-21T17:31:25.411Z,0.30
2018-09-21T17:34:28.582Z,0.20
2018-09-21T17:37:31.722Z,0.20
2018-09-21T17:40:34.963Z,0.20
2018-09-21T17:43:38.191Z,0.20
2018-09-21T17:46:41.495Z,0.10
2018-09-21T17:49:44.621Z,0.30
2018-09-21T17:52:47.830Z,0.47
2018-09-21T17:55:51.149Z,0.20
2018-09-21T17:58:55.387Z,0.20
2018-09-21T18:01:58.685Z,0.20
2018-09-21T18:05:02.027Z,0.10
2018-09-21T18:08:05.219Z,0.40
2018-09-21T18:11:08.470Z,0.20
2018-09-21T18:18:18.893Z,0.20
2018-09-21T18:21:22.131Z,0.10
2018-09-21T18:24:25.382Z,0.30
2018-09-21T18:27:28.558Z,0.20
2018-09-21T18:30:31.777Z,0.33
2018-09-21T18:33:35.232Z,0.20
2018-09-21T18:36:38.347Z,0.33
2018-09-21T18:39:41.580Z,0.20
2018-09-21T18:42:44.775Z,0.20
2018-09-21T18:45:48.015Z,0.20
2018-09-21T18:48:51.330Z,0.20
2018-09-21T18:51:54.647Z,0.17
2018-09-21T18:54:57.785Z,0.30
2018-09-21T18:58:00.990Z,0.23
2018-09-21T19:01:04.233Z,0.20
2018-09-21T19:04:08.357Z,0.20
2018-09-21T19:07:17.284Z,0.23
2018-09-21T19:10:20.592Z,0.20
2018-09-21T19:13:23.898Z,0.20
2018-09-21T19:16:27.189Z,0.20
2018-09-21T19:19:30.369Z,0.30
2018-09-21T19:22:33.536Z,0.20
2018-09-21T19:25:36.757Z,0.10
2018-09-21T19:28:39.905Z,0.30
2018-09-21T19:31:43.061Z,0.23
2018-09-21T19:34:46.515Z,0.23
2018-09-21T19:37:50.027Z,0.20
2018-09-21T19:40:53.280Z,0.20
2018-09-21T19:43:56.403Z,0.20
2018-09-21T19:46:59.536Z,0.30
2018-09-21T19:50:03.305Z,0.30
2018-09-21T19:53:06.669Z,0.40
2018-09-21T19:56:09.760Z,0.50
2018-09-21T19:59:12.797Z,0.30
2018-09-21T20:02:16.137Z,0.30
2018-09-21T20:05:19.305Z,0.20
2018-09-21T20:08:22.467Z,0.20
2018-09-21T20:11:25.643Z,0.30
2018-09-21T20:14:28.898Z,0.30
2018-09-21T20:17:32.030Z,0.30
2018-09-21T20:20:35.261Z,0.40
2018-09-21T20:23:38.799Z,0.30
2018-09-21T20:26:41.905Z,0.50
2018-09-21T20:29:45.110Z,0.33
2018-09-21T20:32:53.917Z,0.43
2018-09-21T20:36:03.377Z,0.30
2018-09-21T20:39:12.843Z,0.80
2018-09-21T20:42:22.188Z,0.50
2018-09-21T20:45:31.395Z,0.47
2018-09-21T20:48:40.648Z,0.40
2018-09-21T20:51:49.912Z,0.50
2018-09-21T20:54:53.199Z,0.30
2018-09-21T20:57:56.453Z,0.40
2018-09-21T21:01:01.672Z,0.30
2018-09-21T21:04:04.814Z,0.40
2018-09-21T21:07:08.022Z,0.43
2018-09-21T21:10:11.420Z,0.40
2018-09-21T21:13:14.663Z,0.33
2018-09-21T21:16:17.949Z,0.63
2018-09-21T21:19:21.142Z,0.40
2018-09-21T21:22:24.321Z,0.40
2018-09-21T21:25:27.534Z,0.37
2018-09-21T21:28:30.765Z,0.40
2018-09-21T21:31:34.140Z,1.23
2018-09-21T21:34:37.581Z,0.40
2018-09-21T21:37:40.837Z,0.77
2018-09-21T21:40:44.306Z,0.33
2018-09-21T21:43:47.573Z,0.30
2018-09-21T21:46:50.230Z,0.53
2018-09-21T21:49:53.562Z,0.47
2018-09-21T21:53:11.718Z,0.87
2018-09-21T21:56:14.938Z,0.30
2018-09-21T21:59:18.481Z,0.73
2018-09-21T22:02:21.761Z,0.40
2018-09-21T22:05:25.070Z,0.47
2018-09-21T22:08:28.602Z,0.60
2018-09-21T22:11:37.437Z,0.50
2018-09-21T22:14:40.642Z,0.40
2018-09-21T22:17:44.030Z,0.60
2018-09-21T22:20:47.841Z,0.47
2018-09-21T22:23:51.133Z,0.33
2018-09-21T22:26:54.321Z,0.70
2018-09-21T22:29:57.614Z,0.87
2018-09-21T22:33:00.886Z,0.77
2018-09-21T22:36:04.482Z,0.43
2018-09-21T22:39:08.371Z,0.47
2018-09-21T22:42:11.649Z,0.60
2018-09-21T22:45:14.999Z,0.50
2018-09-21T22:48:18.211Z,0.50
2018-09-21T22:51:21.412Z,0.40
2018-09-21T22:54:24.723Z,0.50
2018-09-21T22:57:27.932Z,0.67
2018-09-21T23:00:31.274Z,0.50
2018-09-21T23:03:34.551Z,0.57
2018-09-21T23:06:37.895Z,0.50
2018-09-21T23:09:41.136Z,1.07
2018-09-21T23:12:44.474Z,0.60
2018-09-21T23:15:47.780Z,0.40
2018-09-21T23:18:51.075Z,0.60
2018-09-21T23:21:54.309Z,0.80
2018-09-21T23:24:57.728Z,0.80
2018-09-21T23:28:00.987Z,0.60
2018-09-21T23:31:04.209Z,0.50
2018-09-21T23:34:07.995Z,0.60
2018-09-21T23:37:11.285Z,1.07
2018-09-21T23:40:14.569Z,0.50
2018-09-21T23:43:17.982Z,0.60
2018-09-21T23:46:21.271Z,0.93
2018-09-21T23:49:24.418Z,0.70
2018-09-21T23:52:27.729Z,0.90
2018-09-21T23:55:31.022Z,0.60
2018-09-21T23:58:34.266Z,0.97
